Tilton, South Dakota
Current Conditions -  °F | °C
As of 4:35 PM on Saturday 22 Nov 2014 (Local Time) from KSPF Reporting Station
Clear Clear  
Wind Chill:   Ceiling: Unl
Heat Index:   Visibility: 10mi
Dew Point: -2°   Wind: 20mph
Humidity: 46%   Direction: 240°WSW
Pressure: 29.39"   Gusts: 31mph
Location:  44.253°N, 103.912°W
Report Text: KSPF 222335Z AUTO 24017G27KT 10SM CLR 09/M02 A2939 RMK AO2
Loading
Personal Weather Stations






























Interactive Weather Map New forecast layout! Learn more

10-Day Weather Forecast

Advertisements
Track Severe Weather on mobile